Terminal Aerodrome Forecast
Issued by NWS Paducah, KY

Home | Current Version | Previous Version | Graphics & Text | Print | Product List | Glossary On
Versions: 1 2 3 4 5 6 7 8 9 10 11 12 13 14 15 16 17 18 19 20 21 22 23 24
702
FTUS43 KPAH 230918 AAA
TAFEVV
TAF AMD
KEVV 230918Z 2309/2406 15007KT P6SM -SHRA FEW005 BKN025
      TEMPO 2309/2313 3SM SHRA BR BKN005
     FM231500 24007KT P6SM -SHRA OVC008
     FM231800 28005KT P6SM VCSH OVC015
     FM232300 VRB03KT P6SM -SHRA OVC010=

USA.gov is the U.S. government's official web portal to all federal, state and local government web resources and services.